sensor_id;sensor_type;location;lat;lon;timestamp;pressure;altitude;pressure_sealevel;temperature;humidity
20027;BME280;10174;42.688;23.344;2023-12-28T00:01:49;96474.50;;;2.28;100.00
20027;BME280;10174;42.688;23.344;2023-12-28T00:04:16;96474.84;;;2.25;100.00
20027;BME280;10174;42.688;23.344;2023-12-28T00:06:41;96446.50;;;2.11;100.00
20027;BME280;10174;42.688;23.344;2023-12-28T00:09:07;96462.22;;;2.27;100.00
20027;BME280;10174;42.688;23.344;2023-12-28T00:11:33;96478.78;;;2.29;100.00
20027;BME280;10174;42.688;23.344;2023-12-28T00:13:59;96479.97;;;2.27;100.00
20027;BME280;10174;42.688;23.344;2023-12-28T00:16:25;96474.84;;;2.25;100.00
20027;BME280;10174;42.688;23.344;2023-12-28T00:18:50;96485.81;;;2.22;100.00
20027;BME280;10174;42.688;23.344;2023-12-28T00:21:16;96484.66;;;2.25;100.00
20027;BME280;10174;42.688;23.344;2023-12-28T00:23:41;96484.81;;;2.23;100.00
20027;BME280;10174;42.688;23.344;2023-12-28T00:26:06;96485.47;;;2.25;100.00
20027;BME280;10174;42.688;23.344;2023-12-28T00:28:32;96362.69;;;1.42;100.00
20027;BME280;10174;42.688;23.344;2023-12-28T00:30:57;96483.16;;;2.07;100.00
20027;BME280;10174;42.688;23.344;2023-12-28T00:33:23;96470.78;;;2.00;100.00
20027;BME280;10174;42.688;23.344;2023-12-28T00:35:48;96488.00;;;2.04;100.00
20027;BME280;10174;42.688;23.344;2023-12-28T00:38:14;96450.66;;;1.75;100.00
20027;BME280;10174;42.688;23.344;2023-12-28T00:40:41;96470.50;;;1.80;100.00
20027;BME280;10174;42.688;23.344;2023-12-28T00:43:06;96401.56;;;1.27;100.00
20027;BME280;10174;42.688;23.344;2023-12-28T00:45:32;96485.00;;;1.69;100.00
20027;BME280;10174;42.688;23.344;2023-12-28T00:47:57;96472.53;;;1.54;100.00
20027;BME280;10174;42.688;23.344;2023-12-28T00:50:23;96461.72;;;1.41;100.00
20027;BME280;10174;42.688;23.344;2023-12-28T00:52:48;96476.63;;;1.57;100.00
20027;BME280;10174;42.688;23.344;2023-12-28T00:55:14;96503.63;;;1.60;100.00
20027;BME280;10174;42.688;23.344;2023-12-28T00:57:39;96488.13;;;1.49;100.00
20027;BME280;10174;42.688;23.344;2023-12-28T01:00:05;96494.78;;;1.45;100.00
20027;BME280;10174;42.688;23.344;2023-12-28T01:02:31;96507.38;;;1.43;100.00
20027;BME280;10174;42.688;23.344;2023-12-28T01:04:56;96499.50;;;1.35;100.00
20027;BME280;10174;42.688;23.344;2023-12-28T01:07:22;96483.81;;;1.25;100.00
20027;BME280;10174;42.688;23.344;2023-12-28T01:09:47;96474.88;;;1.26;100.00
20027;BME280;10174;42.688;23.344;2023-12-28T01:12:13;96476.53;;;1.27;100.00
20027;BME280;10174;42.688;23.344;2023-12-28T01:14:38;96492.81;;;1.39;100.00
20027;BME280;10174;42.688;23.344;2023-12-28T01:17:04;96493.00;;;1.37;100.00
20027;BME280;10174;42.688;23.344;2023-12-28T01:19:29;96495.47;;;1.39;100.00
20027;BME280;10174;42.688;23.344;2023-12-28T01:21:55;96495.47;;;1.39;100.00
20027;BME280;10174;42.688;23.344;2023-12-28T01:24:20;96490.53;;;1.36;100.00
20027;BME280;10174;42.688;23.344;2023-12-28T01:26:46;96497.59;;;1.43;100.00
20027;BME280;10174;42.688;23.344;2023-12-28T01:29:12;96505.97;;;1.55;100.00
20027;BME280;10174;42.688;23.344;2023-12-28T01:31:37;96504.31;;;1.54;100.00
20027;BME280;10174;42.688;23.344;2023-12-28T01:34:04;96494.63;;;1.47;100.00
20027;BME280;10174;42.688;23.344;2023-12-28T01:36:30;96483.72;;;1.41;100.00
20027;BME280;10174;42.688;23.344;2023-12-28T01:38:55;96495.25;;;1.49;100.00
20027;BME280;10174;42.688;23.344;2023-12-28T01:41:21;96481.31;;;1.32;100.00
20027;BME280;10174;42.688;23.344;2023-12-28T01:43:47;96500.31;;;1.35;100.00
20027;BME280;10174;42.688;23.344;2023-12-28T01:46:17;96469.84;;;1.16;100.00
20027;BME280;10174;42.688;23.344;2023-12-28T01:48:44;96503.78;;;1.36;100.00
20027;BME280;10174;42.688;23.344;2023-12-28T01:51:12;96492.28;;;1.43;100.00
20027;BME280;10174;42.688;23.344;2023-12-28T01:53:39;96473.28;;;1.17;100.00
20027;BME280;10174;42.688;23.344;2023-12-28T01:56:06;96491.81;;;1.17;100.00
20027;BME280;10174;42.688;23.344;2023-12-28T01:58:32;96495.28;;;1.17;100.00
20027;BME280;10174;42.688;23.344;2023-12-28T02:01:01;96328.84;;;0.22;100.00
20027;BME280;10174;42.688;23.344;2023-12-28T02:03:26;96491.81;;;1.17;100.00
20027;BME280;10174;42.688;23.344;2023-12-28T02:05:52;96490.50;;;1.13;100.00
20027;BME280;10174;42.688;23.344;2023-12-28T02:08:18;96364.28;;;0.35;100.00
20027;BME280;10174;42.688;23.344;2023-12-28T02:10:44;96473.72;;;1.05;100.00
20027;BME280;10174;42.688;23.344;2023-12-28T02:13:10;96474.59;;;0.98;100.00
20027;BME280;10174;42.688;23.344;2023-12-28T02:15:35;96472.31;;;0.86;100.00
20027;BME280;10174;42.688;23.344;2023-12-28T02:18:05;96489.97;;;0.94;100.00
20027;BME280;10174;42.688;23.344;2023-12-28T02:20:33;96497.44;;;0.91;100.00
20027;BME280;10174;42.688;23.344;2023-12-28T02:23:00;96387.13;;;0.28;100.00
20027;BME280;10174;42.688;23.344;2023-12-28T02:25:26;96488.00;;;0.96;100.00
20027;BME280;10174;42.688;23.344;2023-12-28T02:27:51;96479.47;;;1.09;100.00
20027;BME280;10174;42.688;23.344;2023-12-28T02:30:19;96472.91;;;0.97;100.00
20027;BME280;10174;42.688;23.344;2023-12-28T02:35:48;96487.19;;;0.87;100.00
20027;BME280;10174;42.688;23.344;2023-12-28T02:38:17;96487.91;;;0.81;100.00
20027;BME280;10174;42.688;23.344;2023-12-28T02:40:44;96498.72;;;0.95;100.00
20027;BME280;10174;42.688;23.344;2023-12-28T02:43:11;96482.25;;;0.84;100.00
20027;BME280;10174;42.688;23.344;2023-12-28T02:45:38;96486.84;;;0.91;100.00
20027;BME280;10174;42.688;23.344;2023-12-28T02:48:04;96482.53;;;0.89;100.00
20027;BME280;10174;42.688;23.344;2023-12-28T02:50:30;96467.88;;;0.79;100.00
20027;BME280;10174;42.688;23.344;2023-12-28T02:52:56;96469.94;;;0.92;100.00
20027;BME280;10174;42.688;23.344;2023-12-28T02:55:22;96470.31;;;0.88;100.00
20027;BME280;10174;42.688;23.344;2023-12-28T02:57:50;96486.34;;;0.87;100.00
20027;BME280;10174;42.688;23.344;2023-12-28T03:00:15;96486.34;;;0.87;100.00
20027;BME280;10174;42.688;23.344;2023-12-28T03:02:41;96475.00;;;0.78;100.00
20027;BME280;10174;42.688;23.344;2023-12-28T03:05:07;96457.19;;;0.72;100.00
20027;BME280;10174;42.688;23.344;2023-12-28T03:07:33;96365.63;;;0.31;100.00
20027;BME280;10174;42.688;23.344;2023-12-28T03:09:59;96464.72;;;0.83;100.00
20027;BME280;10174;42.688;23.344;2023-12-28T03:12:25;96454.72;;;0.70;100.00
20027;BME280;10174;42.688;23.344;2023-12-28T03:14:50;96470.41;;;0.72;100.00
20027;BME280;10174;42.688;23.344;2023-12-28T03:17:16;96484.66;;;0.63;100.00
20027;BME280;10174;42.688;23.344;2023-12-28T03:19:41;96474.56;;;0.66;100.00
20027;BME280;10174;42.688;23.344;2023-12-28T03:22:07;96435.97;;;0.49;100.00
20027;BME280;10174;42.688;23.344;2023-12-28T03:24:32;96453.75;;;0.63;100.00
20027;BME280;10174;42.688;23.344;2023-12-28T03:26:58;96456.22;;;0.65;100.00
20027;BME280;10174;42.688;23.344;2023-12-28T03:29:24;96465.28;;;0.70;100.00
20027;BME280;10174;42.688;23.344;2023-12-28T03:31:49;96422.13;;;0.30;100.00
20027;BME280;10174;42.688;23.344;2023-12-28T03:34:15;96470.50;;;0.47;100.00
20027;BME280;10174;42.688;23.344;2023-12-28T03:36:40;96474.84;;;0.40;100.00
20027;BME280;10174;42.688;23.344;2023-12-28T03:39:06;96456.34;;;0.32;100.00
20027;BME280;10174;42.688;23.344;2023-12-28T03:41:32;96452.72;;;0.33;100.00
20027;BME280;10174;42.688;23.344;2023-12-28T03:43:58;96451.72;;;0.26;100.00
20027;BME280;10174;42.688;23.344;2023-12-28T03:46:23;96479.63;;;0.45;100.00
20027;BME280;10174;42.688;23.344;2023-12-28T03:48:49;96449.47;;;0.14;100.00
20027;BME280;10174;42.688;23.344;2023-12-28T03:51:15;96485.72;;;0.45;100.00
20027;BME280;10174;42.688;23.344;2023-12-28T03:53:41;96497.69;;;0.25;100.00
20027;BME280;10174;42.688;23.344;2023-12-28T03:56:07;96480.34;;;0.22;100.00
20027;BME280;10174;42.688;23.344;2023-12-28T03:58:32;96511.00;;;0.40;100.00
20027;BME280;10174;42.688;23.344;2023-12-28T04:00:58;96503.06;;;0.48;100.00
20027;BME280;10174;42.688;23.344;2023-12-28T04:03:24;96503.38;;;0.61;100.00
20027;BME280;10174;42.688;23.344;2023-12-28T04:05:50;96497.91;;;0.63;100.00
20027;BME280;10174;42.688;23.344;2023-12-28T04:08:16;96477.16;;;0.35;100.00
20027;BME280;10174;42.688;23.344;2023-12-28T04:10:41;96479.81;;;0.27;100.00
20027;BME280;10174;42.688;23.344;2023-12-28T04:13:07;96475.41;;;0.11;100.00
20027;BME280;10174;42.688;23.344;2023-12-28T04:15:33;96478.06;;;0.11;100.00
20027;BME280;10174;42.688;23.344;2023-12-28T04:17:58;96355.88;;;-0.80;100.00
20027;BME280;10174;42.688;23.344;2023-12-28T04:20:24;96503.66;;;0.19;100.00
20027;BME280;10174;42.688;23.344;2023-12-28T04:22:49;96473.78;;;-0.07;100.00
20027;BME280;10174;42.688;23.344;2023-12-28T04:25:15;96498.69;;;0.15;100.00
20027;BME280;10174;42.688;23.344;2023-12-28T04:27:43;96504.00;;;0.15;100.00
20027;BME280;10174;42.688;23.344;2023-12-28T04:30:12;96484.66;;;0.07;100.00
20027;BME280;10174;42.688;23.344;2023-12-28T04:32:38;96487.97;;;0.09;100.00
20027;BME280;10174;42.688;23.344;2023-12-28T04:35:04;96477.59;;;-0.01;100.00
20027;BME280;10174;42.688;23.344;2023-12-28T04:37:31;96513.25;;;0.11;100.00
20027;BME280;10174;42.688;23.344;2023-12-28T04:39:57;96508.78;;;0.12;100.00
20027;BME280;10174;42.688;23.344;2023-12-28T04:42:23;96475.94;;;-0.02;100.00
20027;BME280;10174;42.688;23.344;2023-12-28T04:44:48;96496.72;;;0.01;100.00
20027;BME280;10174;42.688;23.344;2023-12-28T04:47:14;96501.34;;;0.07;100.00
20027;BME280;10174;42.688;23.344;2023-12-28T04:49:39;96504.00;;;0.15;100.00
20027;BME280;10174;42.688;23.344;2023-12-28T04:52:05;96502.47;;;0.21;100.00
20027;BME280;10174;42.688;23.344;2023-12-28T04:54:30;96517.19;;;0.24;100.00
20027;BME280;10174;42.688;23.344;2023-12-28T04:56:58;96503.31;;;0.22;100.00
20027;BME280;10174;42.688;23.344;2023-12-28T04:59:23;96382.25;;;-0.47;100.00
20027;BME280;10174;42.688;23.344;2023-12-28T05:01:48;96516.50;;;0.30;100.00
20027;BME280;10174;42.688;23.344;2023-12-28T05:04:14;96489.75;;;0.16;100.00
20027;BME280;10174;42.688;23.344;2023-12-28T05:06:39;96476.56;;;0.08;100.00
20027;BME280;10174;42.688;23.344;2023-12-28T05:09:05;96497.69;;;0.25;100.00
20027;BME280;10174;42.688;23.344;2023-12-28T05:11:31;96404.34;;;-0.40;100.00
20027;BME280;10174;42.688;23.344;2023-12-28T05:13:56;96478.75;;;0.05;100.00
20027;BME280;10174;42.688;23.344;2023-12-28T05:16:22;96482.53;;;0.02;100.00
20027;BME280;10174;42.688;23.344;2023-12-28T05:18:47;96484.84;;;-0.03;100.00
20027;BME280;10174;42.688;23.344;2023-12-28T05:21:13;96469.66;;;-0.09;100.00
20027;BME280;10174;42.688;23.344;2023-12-28T05:23:39;96512.69;;;0.24;100.00
20027;BME280;10174;42.688;23.344;2023-12-28T05:26:04;96478.75;;;0.05;100.00
20027;BME280;10174;42.688;23.344;2023-12-28T05:28:30;96381.25;;;-0.46;100.00
20027;BME280;10174;42.688;23.344;2023-12-28T05:30:55;96375.31;;;-0.48;100.00
20027;BME280;10174;42.688;23.344;2023-12-28T05:33:21;96495.00;;;0.33;100.00
20027;BME280;10174;42.688;23.344;2023-12-28T05:35:48;96489.06;;;0.31;100.00
20027;BME280;10174;42.688;23.344;2023-12-28T05:38:13;96516.47;;;0.46;100.00
20027;BME280;10174;42.688;23.344;2023-12-28T05:40:39;96522.56;;;0.47;100.00
20027;BME280;10174;42.688;23.344;2023-12-28T05:43:04;96518.50;;;0.28;100.00
20027;BME280;10174;42.688;23.344;2023-12-28T05:45:29;96532.03;;;0.33;100.00
20027;BME280;10174;42.688;23.344;2023-12-28T05:47:55;96506.13;;;0.20;100.00
20027;BME280;10174;42.688;23.344;2023-12-28T05:50:20;96517.97;;;0.41;100.00
20027;BME280;10174;42.688;23.344;2023-12-28T05:52:46;96373.00;;;-0.60;100.00
20027;BME280;10174;42.688;23.344;2023-12-28T05:55:11;96528.06;;;0.37;100.00
20027;BME280;10174;42.688;23.344;2023-12-28T05:57:37;96515.19;;;0.26;100.00
20027;BME280;10174;42.688;23.344;2023-12-28T06:00:02;96547.06;;;0.32;100.00
20027;BME280;10174;42.688;23.344;2023-12-28T06:02:29;96525.59;;;0.35;100.00
20027;BME280;10174;42.688;23.344;2023-12-28T06:04:55;96533.34;;;0.37;100.00
20027;BME280;10174;42.688;23.344;2023-12-28T06:07:20;96542.91;;;0.46;100.00
20027;BME280;10174;42.688;23.344;2023-12-28T06:09:46;96531.81;;;0.43;100.00
20027;BME280;10174;42.688;23.344;2023-12-28T06:12:12;96533.69;;;0.34;100.00
20027;BME280;10174;42.688;23.344;2023-12-28T06:14:37;96398.25;;;-0.57;100.00
20027;BME280;10174;42.688;23.344;2023-12-28T06:17:03;96535.69;;;0.24;100.00
20027;BME280;10174;42.688;23.344;2023-12-28T06:19:28;96410.31;;;-0.55;100.00
20027;BME280;10174;42.688;23.344;2023-12-28T06:21:54;96537.00;;;0.28;100.00
20027;BME280;10174;42.688;23.344;2023-12-28T06:24:20;96543.91;;;0.37;100.00
20027;BME280;10174;42.688;23.344;2023-12-28T06:26:45;96537.97;;;0.35;100.00
20027;BME280;10174;42.688;23.344;2023-12-28T06:29:11;96505.97;;;0.22;100.00
20027;BME280;10174;42.688;23.344;2023-12-28T06:31:37;96534.81;;;0.40;100.00
20027;BME280;10174;42.688;23.344;2023-12-28T06:34:06;96543.59;;;0.40;100.00
20027;BME280;10174;42.688;23.344;2023-12-28T06:36:32;96515.50;;;0.23;100.00
20027;BME280;10174;42.688;23.344;2023-12-28T06:38:58;96401.22;;;-0.52;100.00
20027;BME280;10174;42.688;23.344;2023-12-28T06:41:27;96540.25;;;0.38;100.00
20027;BME280;10174;42.688;23.344;2023-12-28T06:43:52;96537.28;;;0.41;100.00
20027;BME280;10174;42.688;23.344;2023-12-28T06:46:18;96547.34;;;0.54;100.00
20027;BME280;10174;42.688;23.344;2023-12-28T06:48:44;96529.53;;;0.40;100.00
20027;BME280;10174;42.688;23.344;2023-12-28T06:51:16;96426.09;;;-0.13;100.00
20027;BME280;10174;42.688;23.344;2023-12-28T06:53:42;96536.59;;;0.47;100.00
20027;BME280;10174;42.688;23.344;2023-12-28T06:56:09;96551.78;;;0.62;100.00
20027;BME280;10174;42.688;23.344;2023-12-28T06:58:34;96521.41;;;0.49;100.00
20027;BME280;10174;42.688;23.344;2023-12-28T07:01:03;96479.81;;;0.27;100.00
20027;BME280;10174;42.688;23.344;2023-12-28T07:03:28;96565.63;;;0.80;100.00
20027;BME280;10174;42.688;23.344;2023-12-28T07:06:00;96538.19;;;0.73;100.00
20027;BME280;10174;42.688;23.344;2023-12-28T07:08:26;96546.06;;;0.89;100.00
20027;BME280;10174;42.688;23.344;2023-12-28T07:10:51;96540.41;;;0.93;100.00
20027;BME280;10174;42.688;23.344;2023-12-28T07:13:17;96562.50;;;1.08;100.00
20027;BME280;10174;42.688;23.344;2023-12-28T07:15:42;96533.09;;;1.03;100.00
20027;BME280;10174;42.688;23.344;2023-12-28T07:18:08;96433.47;;;0.47;100.00
20027;BME280;10174;42.688;23.344;2023-12-28T07:20:33;96538.31;;;1.19;100.00
20027;BME280;10174;42.688;23.344;2023-12-28T07:22:59;96540.84;;;1.36;100.00
20027;BME280;10174;42.688;23.344;2023-12-28T07:25:25;96534.09;;;1.33;100.00
20027;BME280;10174;42.688;23.344;2023-12-28T07:27:50;96554.94;;;1.59;100.00
20027;BME280;10174;42.688;23.344;2023-12-28T07:30:16;96496.88;;;1.27;100.00
20027;BME280;10174;42.688;23.344;2023-12-28T07:32:43;96488.31;;;1.24;100.00
20027;BME280;10174;42.688;23.344;2023-12-28T07:35:08;96445.47;;;0.98;100.00
20027;BME280;10174;42.688;23.344;2023-12-28T07:37:34;96554.84;;;1.76;100.00
20027;BME280;10174;42.688;23.344;2023-12-28T07:40:00;96468.47;;;1.20;100.00
20027;BME280;10174;42.688;23.344;2023-12-28T07:42:26;96534.34;;;1.70;100.00
20027;BME280;10174;42.688;23.344;2023-12-28T07:44:51;96479.22;;;1.42;100.00
20027;BME280;10174;42.688;23.344;2023-12-28T07:47:17;96537.00;;;1.70;100.00
20027;BME280;10174;42.688;23.344;2023-12-28T07:49:42;96530.41;;;1.66;100.00
20027;BME280;10174;42.688;23.344;2023-12-28T07:52:08;96556.34;;;1.93;100.00
20027;BME280;10174;42.688;23.344;2023-12-28T07:54:33;96525.97;;;1.81;100.00
20027;BME280;10174;42.688;23.344;2023-12-28T07:56:59;96555.94;;;2.05;100.00
20027;BME280;10174;42.688;23.344;2023-12-28T07:59:25;96565.53;;;2.06;100.00
20027;BME280;10174;42.688;23.344;2023-12-28T08:01:50;96498.53;;;1.74;100.00
20027;BME280;10174;42.688;23.344;2023-12-28T08:04:16;96539.00;;;2.06;100.00
20027;BME280;10174;42.688;23.344;2023-12-28T08:06:42;96529.69;;;2.10;100.00
20027;BME280;10174;42.688;23.344;2023-12-28T08:09:07;96529.44;;;2.20;100.00
20027;BME280;10174;42.688;23.344;2023-12-28T08:11:34;96486.81;;;2.06;100.00
20027;BME280;10174;42.688;23.344;2023-12-28T08:13:59;96527.00;;;2.48;100.00
20027;BME280;10174;42.688;23.344;2023-12-28T08:16:25;96502.75;;;2.36;100.00
20027;BME280;10174;42.688;23.344;2023-12-28T08:18:51;96543.19;;;2.68;100.00
20027;BME280;10174;42.688;23.344;2023-12-28T08:21:17;96516.75;;;2.60;100.00
20027;BME280;10174;42.688;23.344;2023-12-28T08:23:42;96503.13;;;2.63;100.00
20027;BME280;10174;42.688;23.344;2023-12-28T08:26:08;96527.53;;;2.88;100.00
20027;BME280;10174;42.688;23.344;2023-12-28T08:28:33;96426.47;;;2.23;100.00
20027;BME280;10174;42.688;23.344;2023-12-28T08:30:59;96529.75;;;2.99;100.00
20027;BME280;10174;42.688;23.344;2023-12-28T08:33:24;96530.00;;;3.05;100.00
20027;BME280;10174;42.688;23.344;2023-12-28T08:35:50;96539.69;;;3.12;100.00
20027;BME280;10174;42.688;23.344;2023-12-28T08:38:16;96524.88;;;3.03;100.00
20027;BME280;10174;42.688;23.344;2023-12-28T08:40:41;96502.34;;;2.99;100.00
20027;BME280;10174;42.688;23.344;2023-12-28T08:43:07;96522.94;;;3.12;100.00
20027;BME280;10174;42.688;23.344;2023-12-28T08:45:32;96516.03;;;3.17;100.00
20027;BME280;10174;42.688;23.344;2023-12-28T08:47:59;96489.41;;;3.11;100.00
20027;BME280;10174;42.688;23.344;2023-12-28T08:50:25;96517.75;;;3.25;100.00
20027;BME280;10174;42.688;23.344;2023-12-28T08:52:50;96510.25;;;3.29;100.00
20027;BME280;10174;42.688;23.344;2023-12-28T08:55:16;96498.16;;;3.26;100.00
20027;BME280;10174;42.688;23.344;2023-12-28T08:57:41;96500.81;;;3.48;100.00
20027;BME280;10174;42.688;23.344;2023-12-28T09:00:07;96494.75;;;3.54;100.00
20027;BME280;10174;42.688;23.344;2023-12-28T09:02:33;96488.19;;;3.50;100.00
20027;BME280;10174;42.688;23.344;2023-12-28T09:04:59;96467.22;;;3.40;100.00
20027;BME280;10174;42.688;23.344;2023-12-28T09:07:24;96490.34;;;3.61;100.00
20027;BME280;10174;42.688;23.344;2023-12-28T09:09:50;96369.16;;;2.95;100.00
20027;BME280;10174;42.688;23.344;2023-12-28T09:12:15;96492.84;;;3.69;100.00
20027;BME280;10174;42.688;23.344;2023-12-28T09:14:41;96481.44;;;3.75;100.00
20027;BME280;10174;42.688;23.344;2023-12-28T09:17:06;96443.75;;;3.65;100.00
20027;BME280;10174;42.688;23.344;2023-12-28T09:19:32;96454.09;;;3.82;100.00
20027;BME280;10174;42.688;23.344;2023-12-28T09:21:57;96464.22;;;3.93;100.00
20027;BME280;10174;42.688;23.344;2023-12-28T09:24:23;96482.19;;;4.13;100.00
20027;BME280;10174;42.688;23.344;2023-12-28T09:26:48;96461.03;;;4.04;100.00
20027;BME280;10174;42.688;23.344;2023-12-28T09:29:14;96431.75;;;3.98;100.00
20027;BME280;10174;42.688;23.344;2023-12-28T09:31:40;96432.03;;;4.09;100.00
20027;BME280;10174;42.688;23.344;2023-12-28T09:34:05;96424.88;;;4.17;100.00
20027;BME280;10174;42.688;23.344;2023-12-28T09:36:31;96437.28;;;4.31;100.00
20027;BME280;10174;42.688;23.344;2023-12-28T09:38:57;96435.22;;;4.33;100.00
20027;BME280;10174;42.688;23.344;2023-12-28T09:41:25;96421.09;;;4.33;100.00
20027;BME280;10174;42.688;23.344;2023-12-28T09:44:16;96438.22;;;4.58;100.00
20027;BME280;10174;42.688;23.344;2023-12-28T09:46:44;96434.34;;;4.61;100.00
20027;BME280;10174;42.688;23.344;2023-12-28T09:49:11;96428.19;;;4.60;100.00
20027;BME280;10174;42.688;23.344;2023-12-28T09:51:37;96376.69;;;4.33;100.00
20027;BME280;10174;42.688;23.344;2023-12-28T09:54:05;96423.13;;;4.72;100.00
20027;BME280;10174;42.688;23.344;2023-12-28T09:56:32;96401.78;;;4.66;100.00
20027;BME280;10174;42.688;23.344;2023-12-28T09:58:58;96419.69;;;4.85;100.00
20027;BME280;10174;42.688;23.344;2023-12-28T10:01:24;96410.47;;;4.81;100.00
20027;BME280;10174;42.688;23.344;2023-12-28T10:03:50;96385.47;;;4.75;100.00
20027;BME280;10174;42.688;23.344;2023-12-28T10:06:16;96378.13;;;4.84;100.00
20027;BME280;10174;42.688;23.344;2023-12-28T10:08:45;96378.13;;;4.91;100.00
20027;BME280;10174;42.688;23.344;2023-12-28T10:11:11;96359.69;;;4.82;100.00
20027;BME280;10174;42.688;23.344;2023-12-28T10:13:37;96381.44;;;5.06;100.00
20027;BME280;10174;42.688;23.344;2023-12-28T10:16:03;96239.94;;;4.27;100.00
20027;BME280;10174;42.688;23.344;2023-12-28T10:18:28;96363.59;;;5.00;100.00
20027;BME280;10174;42.688;23.344;2023-12-28T10:20:55;96371.81;;;5.18;100.00
20027;BME280;10174;42.688;23.344;2023-12-28T10:23:20;96352.78;;;5.22;100.00
20027;BME280;10174;42.688;23.344;2023-12-28T10:25:50;96359.94;;;5.48;100.00
20027;BME280;10174;42.688;23.344;2023-12-28T10:28:18;96375.75;;;5.56;100.00
20027;BME280;10174;42.688;23.344;2023-12-28T10:30:45;96335.34;;;5.52;100.00
20027;BME280;10174;42.688;23.344;2023-12-28T10:33:10;96289.66;;;5.29;100.00
20027;BME280;10174;42.688;23.344;2023-12-28T10:35:36;96238.84;;;5.10;100.00
20027;BME280;10174;42.688;23.344;2023-12-28T10:38:01;96328.16;;;5.86;100.00
20027;BME280;10174;42.688;23.344;2023-12-28T10:40:30;96317.25;;;5.95;100.00
20027;BME280;10174;42.688;23.344;2023-12-28T10:43:06;96099.16;;;4.66;100.00
20027;BME280;10174;42.688;23.344;2023-12-28T10:45:32;96233.41;;;5.57;100.00
20027;BME280;10174;42.688;23.344;2023-12-28T10:48:05;96289.31;;;6.11;100.00
20027;BME280;10174;42.688;23.344;2023-12-28T10:58:59;96288.63;;;6.67;100.00
20027;BME280;10174;42.688;23.344;2023-12-28T11:01:31;96286.78;;;6.68;100.00
20027;BME280;10174;42.688;23.344;2023-12-28T11:04:07;96274.47;;;6.67;100.00
20027;BME280;10174;42.688;23.344;2023-12-28T11:06:36;96275.25;;;6.74;100.00
20027;BME280;10174;42.688;23.344;2023-12-28T11:09:03;96282.13;;;6.88;100.00
20027;BME280;10174;42.688;23.344;2023-12-28T11:11:31;96206.72;;;6.61;100.00
20027;BME280;10174;42.688;23.344;2023-12-28T11:13:59;96264.28;;;7.14;100.00
20027;BME280;10174;42.688;23.344;2023-12-28T11:16:25;96242.34;;;7.05;100.00
20027;BME280;10174;42.688;23.344;2023-12-28T11:18:52;96138.22;;;6.48;100.00
20027;BME280;10174;42.688;23.344;2023-12-28T11:21:20;96252.50;;;7.22;100.00
20027;BME280;10174;42.688;23.344;2023-12-28T11:23:46;96263.72;;;7.30;100.00
20027;BME280;10174;42.688;23.344;2023-12-28T11:26:20;96247.47;;;7.32;100.00
20027;BME280;10174;42.688;23.344;2023-12-28T11:28:45;96256.19;;;7.46;100.00
20027;BME280;10174;42.688;23.344;2023-12-28T11:31:14;96243.41;;;7.48;100.00
20027;BME280;10174;42.688;23.344;2023-12-28T11:33:50;96245.81;;;7.56;100.00
20027;BME280;10174;42.688;23.344;2023-12-28T11:36:22;96231.38;;;7.57;100.00
20027;BME280;10174;42.688;23.344;2023-12-28T11:38:54;96229.53;;;7.58;100.00
20027;BME280;10174;42.688;23.344;2023-12-28T11:41:24;96205.56;;;7.70;100.00
20027;BME280;10174;42.688;23.344;2023-12-28T11:43:54;96209.72;;;7.65;100.00
20027;BME280;10174;42.688;23.344;2023-12-28T11:46:23;96210.16;;;7.81;100.00
20027;BME280;10174;42.688;23.344;2023-12-28T11:48:48;96179.31;;;7.78;100.00
20027;BME280;10174;42.688;23.344;2023-12-28T11:51:14;96139.84;;;7.74;100.00
20027;BME280;10174;42.688;23.344;2023-12-28T11:53:41;96202.25;;;8.35;100.00
20027;BME280;10174;42.688;23.344;2023-12-28T11:56:07;96203.88;;;9.56;100.00
20027;BME280;10174;42.688;23.344;2023-12-28T11:58:35;96091.97;;;10.55;94.38
20027;BME280;10174;42.688;23.344;2023-12-28T12:01:02;96192.09;;;11.69;82.43
20027;BME280;10174;42.688;23.344;2023-12-28T12:03:27;96182.81;;;11.59;81.06
20027;BME280;10174;42.688;23.344;2023-12-28T12:05:55;96179.56;;;12.19;77.26
20027;BME280;10174;42.688;23.344;2023-12-28T12:08:22;96180.41;;;12.46;73.47
20027;BME280;10174;42.688;23.344;2023-12-28T12:10:48;96195.03;;;13.48;66.87
20027;BME280;10174;42.688;23.344;2023-12-28T12:13:14;96171.81;;;13.47;63.49
20027;BME280;10174;42.688;23.344;2023-12-28T12:15:40;95989.88;;;11.16;68.62
20027;BME280;10174;42.688;23.344;2023-12-28T12:18:06;96182.59;;;12.00;72.57
20027;BME280;10174;42.688;23.344;2023-12-28T12:20:31;96137.56;;;12.50;71.64
20027;BME280;10174;42.688;23.344;2023-12-28T12:23:01;96159.44;;;13.18;66.71
20027;BME280;10174;42.688;23.344;2023-12-28T12:25:28;96178.50;;;13.07;66.34
20027;BME280;10174;42.688;23.344;2023-12-28T12:27:54;96165.84;;;12.20;70.03
20027;BME280;10174;42.688;23.344;2023-12-28T12:30:19;96151.00;;;12.45;70.04
20027;BME280;10174;42.688;23.344;2023-12-28T12:32:45;96122.13;;;12.13;69.25
20027;BME280;10174;42.688;23.344;2023-12-28T12:35:11;96175.94;;;13.22;67.26
20027;BME280;10174;42.688;23.344;2023-12-28T12:37:37;96100.50;;;14.06;59.18
20027;BME280;10174;42.688;23.344;2023-12-28T12:40:04;96165.31;;;14.95;55.92
20027;BME280;10174;42.688;23.344;2023-12-28T12:42:31;96179.09;;;15.50;53.54
20027;BME280;10174;42.688;23.344;2023-12-28T12:44:57;96159.28;;;14.41;56.15
20027;BME280;10174;42.688;23.344;2023-12-28T12:47:23;96170.94;;;14.63;55.50
20027;BME280;10174;42.688;23.344;2023-12-28T12:49:51;96142.03;;;15.14;54.37
20027;BME280;10174;42.688;23.344;2023-12-28T12:52:16;96174.50;;;14.94;53.33
20027;BME280;10174;42.688;23.344;2023-12-28T12:54:42;96152.03;;;14.78;53.77
20027;BME280;10174;42.688;23.344;2023-12-28T12:57:08;96136.91;;;16.19;50.80